UAL546 SYCJ-KORD
Flight info
| Callsign | UAL546 |
|---|---|
| Flight time | N/A |
| Altitude | 34000 |
| Route | TIM UA324 MINDA UL452 ANADA L452 HARBG Y421 HAGIT Y306 VENDS/N0465F360 Y185 MANLE Q89 PRMUS/N0467F350 Q93 GIPPL/N0462F370 Q93 ISUZO Q69 GURGE/N0464F360 Q93 FISHO/N0460F370 Q93 QUIWE/N0462F360 Q93 HEVAN Q118 BONNT VEECK5 |
| Aircraft | A20N/M-SDE2E3FGHIRWXY/LB1 |
Departure
| Time | N/A |
|---|---|
| Airport | Cheddi Jagan International Airport (SYCJ) |
Arrival
| Time | 2026-05-05 22:40 |
|---|---|
| Airport | Chicago O'Hare International Airport (KORD) |
| Time | Latitude | Longitude | Altitude | Speed | Heading |
|---|---|---|---|---|---|
| 2026-05-05 22:01 | 41.62999 | -86.23650 | 32395 ft | 382 kts | 327° |
| 2026-05-05 22:01 | 41.65430 | -86.24738 | 32384 ft | 366 kts | 327° |
| 2026-05-05 22:01 | 41.67810 | -86.25764 | 32380 ft | 352 kts | 327° |
| 2026-05-05 22:02 | 41.70153 | -86.26760 | 32386 ft | 357 kts | 327° |
| 2026-05-05 22:02 | 41.72542 | -86.27796 | 32210 ft | 364 kts | 327° |
| 2026-05-05 22:02 | 41.74953 | -86.28850 | 31957 ft | 364 kts | 327° |
| 2026-05-05 22:02 | 41.77358 | -86.29903 | 31839 ft | 364 kts | 327° |
| 2026-05-05 22:03 | 41.79787 | -86.30974 | 31490 ft | 369 kts | 328° |
| 2026-05-05 22:03 | 41.82236 | -86.32068 | 31075 ft | 373 kts | 328° |
| 2026-05-05 22:03 | 41.84748 | -86.33099 | 30651 ft | 388 kts | 336° |
| 2026-05-05 22:03 | 41.87527 | -86.33321 | 30247 ft | 416 kts | 353° |
| 2026-05-05 22:04 | 41.90435 | -86.32486 | 29834 ft | 438 kts | 10° |
| 2026-05-05 22:04 | 41.93201 | -86.30593 | 29350 ft | 454 kts | 27° |
| 2026-05-05 22:04 | 41.95580 | -86.27750 | 28885 ft | 464 kts | 44° |
| 2026-05-05 22:04 | 41.97371 | -86.24147 | 28428 ft | 466 kts | 62° |
| 2026-05-05 22:05 | 41.98419 | -86.20038 | 27977 ft | 465 kts | 80° |
| 2026-05-05 22:05 | 41.98638 | -86.15740 | 27533 ft | 458 kts | 98° |
| 2026-05-05 22:05 | 41.98020 | -86.11612 | 27092 ft | 444 kts | 116° |
| 2026-05-05 22:05 | 41.96644 | -86.08008 | 26659 ft | 425 kts | 133° |
| 2026-05-05 22:06 | 41.94921 | -86.04810 | 26234 ft | 421 kts | 135° |
| 2026-05-05 22:06 | 41.93192 | -86.01664 | 25807 ft | 417 kts | 135° |
| 2026-05-05 22:06 | 41.91473 | -85.98542 | 25391 ft | 413 kts | 135° |
| 2026-05-05 22:06 | 41.89767 | -85.95452 | 25080 ft | 409 kts | 135° |
| 2026-05-05 22:07 | 41.88078 | -85.92400 | 24983 ft | 407 kts | 134° |
| 2026-05-05 22:07 | 41.86251 | -85.89600 | 24887 ft | 398 kts | 149° |
| 2026-05-05 22:07 | 41.83960 | -85.87738 | 24833 ft | 375 kts | 170° |
| 2026-05-05 22:07 | 41.81488 | -85.86764 | 24829 ft | 368 kts | 175° |
| 2026-05-05 22:08 | 41.79012 | -85.85905 | 24829 ft | 366 kts | 177° |
| 2026-05-05 22:08 | 41.76553 | -85.85679 | 24830 ft | 345 kts | 197° |
| 2026-05-05 22:08 | 41.74340 | -85.86609 | 24830 ft | 326 kts | 217° |
| 2026-05-05 22:08 | 41.72555 | -85.88399 | 24828 ft | 319 kts | 226° |
| 2026-05-05 22:09 | 41.70868 | -85.90331 | 24832 ft | 319 kts | 226° |
| 2026-05-05 22:09 | 41.69188 | -85.92263 | 24829 ft | 319 kts | 226° |
| 2026-05-05 22:09 | 41.67504 | -85.94202 | 24829 ft | 319 kts | 226° |
| 2026-05-05 22:09 | 41.65823 | -85.96139 | 24830 ft | 320 kts | 226° |
| 2026-05-05 22:10 | 41.64159 | -85.98059 | 24827 ft | 320 kts | 226° |
| 2026-05-05 22:10 | 41.62479 | -85.99999 | 24828 ft | 319 kts | 226° |
| 2026-05-05 22:10 | 41.60793 | -86.01948 | 24801 ft | 320 kts | 226° |
| 2026-05-05 22:10 | 41.59102 | -86.03908 | 24526 ft | 322 kts | 226° |
| 2026-05-05 22:11 | 41.57627 | -86.06089 | 24148 ft | 312 kts | 243° |
| 2026-05-05 22:11 | 41.56934 | -86.08783 | 23777 ft | 307 kts | 263° |
| 2026-05-05 22:11 | 41.57100 | -86.11632 | 23413 ft | 311 kts | 277° |
| 2026-05-05 22:11 | 41.57539 | -86.14481 | 22982 ft | 313 kts | 278° |
| 2026-05-05 22:12 | 41.57979 | -86.17281 | 22559 ft | 310 kts | 278° |
| 2026-05-05 22:12 | 41.58420 | -86.20077 | 22139 ft | 305 kts | 276° |
| 2026-05-05 22:12 | 41.58413 | -86.22834 | 21720 ft | 295 kts | 256° |
| 2026-05-05 22:12 | 41.57548 | -86.25283 | 21294 ft | 292 kts | 234° |
| 2026-05-05 22:13 | 41.56010 | -86.27072 | 20904 ft | 294 kts | 220° |
| 2026-05-05 22:13 | 41.54370 | -86.28674 | 20498 ft | 288 kts | 229° |
| 2026-05-05 22:13 | 41.53285 | -86.30841 | 20066 ft | 280 kts | 251° |
| 2026-05-05 22:13 | 41.53051 | -86.33402 | 19631 ft | 282 kts | 274° |
| 2026-05-05 22:14 | 41.53718 | -86.35889 | 19197 ft | 294 kts | 297° |
| 2026-05-05 22:14 | 41.55156 | -86.37861 | 18788 ft | 308 kts | 315° |
| 2026-05-05 22:14 | 41.56942 | -86.39483 | 18376 ft | 310 kts | 317° |
| 2026-05-05 22:14 | 41.58681 | -86.41155 | 17923 ft | 306 kts | 314° |
| 2026-05-05 22:15 | 41.60296 | -86.42981 | 17448 ft | 302 kts | 310° |
| 2026-05-05 22:15 | 41.61804 | -86.44917 | 16983 ft | 299 kts | 307° |
| 2026-05-05 22:15 | 41.63248 | -86.46908 | 16512 ft | 296 kts | 306° |
| 2026-05-05 22:15 | 41.64668 | -86.48876 | 15978 ft | 294 kts | 312° |
| 2026-05-05 22:16 | 41.66472 | -86.50228 | 15443 ft | 306 kts | 336° |
| 2026-05-05 22:16 | 41.68631 | -86.50501 | 14912 ft | 319 kts | 356° |
| 2026-05-05 22:16 | 41.70855 | -86.50254 | 14378 ft | 319 kts | 358° |
| 2026-05-05 22:16 | 41.73059 | -86.49991 | 13861 ft | 316 kts | 358° |
| 2026-05-05 22:17 | 41.75214 | -86.49733 | 13309 ft | 313 kts | 358° |
| 2026-05-05 22:17 | 41.77403 | -86.49475 | 12741 ft | 310 kts | 358° |
| 2026-05-05 22:17 | 41.79517 | -86.49221 | 12425 ft | 302 kts | 358° |
| 2026-05-05 22:17 | 41.81598 | -86.48971 | 12442 ft | 306 kts | 358° |
| 2026-05-05 22:18 | 41.83729 | -86.48716 | 12552 ft | 307 kts | 358° |
| 2026-05-05 22:18 | 41.85858 | -86.48458 | 12658 ft | 307 kts | 358° |
| 2026-05-05 22:18 | 41.87994 | -86.48196 | 12765 ft | 308 kts | 358° |
| 2026-05-05 22:18 | 41.90136 | -86.47932 | 12869 ft | 308 kts | 358° |
| 2026-05-05 22:19 | 41.92275 | -86.47665 | 12972 ft | 309 kts | 358° |
| 2026-05-05 22:19 | 41.94395 | -86.47398 | 13078 ft | 310 kts | 358° |
| 2026-05-05 22:19 | 41.96571 | -86.47121 | 13186 ft | 310 kts | 358° |
| 2026-05-05 22:19 | 41.98718 | -86.46843 | 13289 ft | 311 kts | 358° |
| 2026-05-05 22:20 | 42.00842 | -86.46566 | 13396 ft | 311 kts | 358° |
| 2026-05-05 22:20 | 42.02999 | -86.46340 | 13500 ft | 307 kts | 350° |
| 2026-05-05 22:20 | 42.05018 | -86.46870 | 13614 ft | 287 kts | 328° |
| 2026-05-05 22:20 | 42.06631 | -86.48305 | 13728 ft | 272 kts | 307° |
| 2026-05-05 22:21 | 42.07662 | -86.50343 | 13821 ft | 260 kts | 287° |
| 2026-05-05 22:21 | 42.08076 | -86.52684 | 13725 ft | 256 kts | 270° |
| 2026-05-05 22:21 | 42.07911 | -86.55038 | 13613 ft | 251 kts | 260° |
| 2026-05-05 22:21 | 42.07659 | -86.57359 | 13615 ft | 252 kts | 261° |
| 2026-05-05 22:22 | 42.07416 | -86.59707 | 13613 ft | 253 kts | 261° |
| 2026-05-05 22:22 | 42.07179 | -86.62049 | 13601 ft | 253 kts | 261° |
| 2026-05-05 22:22 | 42.06944 | -86.64390 | 13598 ft | 253 kts | 261° |
| 2026-05-05 22:22 | 42.06709 | -86.66732 | 13600 ft | 253 kts | 261° |
| 2026-05-05 22:23 | 42.06472 | -86.69080 | 13593 ft | 253 kts | 261° |
| 2026-05-05 22:23 | 42.06237 | -86.71404 | 13409 ft | 254 kts | 261° |
| 2026-05-05 22:23 | 42.06000 | -86.73750 | 13205 ft | 252 kts | 261° |
| 2026-05-05 22:23 | 42.05764 | -86.76075 | 12990 ft | 251 kts | 261° |
| 2026-05-05 22:24 | 42.05526 | -86.78408 | 12780 ft | 251 kts | 261° |
| 2026-05-05 22:24 | 42.05289 | -86.80736 | 12572 ft | 251 kts | 261° |
| 2026-05-05 22:24 | 42.05053 | -86.83043 | 12369 ft | 250 kts | 261° |
| 2026-05-05 22:24 | 42.04815 | -86.85371 | 12160 ft | 249 kts | 261° |
| 2026-05-05 22:25 | 42.04579 | -86.87674 | 11959 ft | 248 kts | 261° |
| 2026-05-05 22:25 | 42.04342 | -86.89977 | 11757 ft | 249 kts | 261° |
| 2026-05-05 22:25 | 42.04104 | -86.92282 | 11498 ft | 249 kts | 261° |
| 2026-05-05 22:25 | 42.03867 | -86.94579 | 11172 ft | 247 kts | 261° |
| 2026-05-05 22:26 | 42.03633 | -86.96827 | 10858 ft | 246 kts | 261° |
| 2026-05-05 22:26 | 42.03395 | -86.99118 | 10542 ft | 247 kts | 261° |
| 2026-05-05 22:26 | 42.03158 | -87.01393 | 10229 ft | 244 kts | 261° |
| 2026-05-05 22:26 | 42.02922 | -87.03650 | 9917 ft | 245 kts | 261° |
| 2026-05-05 22:27 | 42.02685 | -87.05918 | 9592 ft | 245 kts | 261° |
| 2026-05-05 22:27 | 42.02448 | -87.08178 | 9250 ft | 243 kts | 261° |
| 2026-05-05 22:27 | 42.02213 | -87.10418 | 9124 ft | 242 kts | 262° |
| 2026-05-05 22:27 | 42.01975 | -87.12675 | 9032 ft | 244 kts | 262° |
| 2026-05-05 22:28 | 42.01738 | -87.14927 | 9021 ft | 243 kts | 262° |
| 2026-05-05 22:28 | 42.01500 | -87.17183 | 9023 ft | 244 kts | 262° |
| 2026-05-05 22:28 | 42.01261 | -87.19443 | 9025 ft | 244 kts | 262° |
| 2026-05-05 22:28 | 42.01023 | -87.21689 | 9022 ft | 244 kts | 262° |
| 2026-05-05 22:29 | 42.00784 | -87.23945 | 9025 ft | 244 kts | 262° |
| 2026-05-05 22:29 | 42.00543 | -87.26207 | 9023 ft | 244 kts | 262° |
| 2026-05-05 22:29 | 42.00312 | -87.28392 | 9017 ft | 244 kts | 263° |
| 2026-05-05 22:29 | 42.00116 | -87.30666 | 9025 ft | 244 kts | 260° |
| 2026-05-05 22:30 | 41.99732 | -87.32861 | 9024 ft | 234 kts | 261° |
| 2026-05-05 22:30 | 41.99720 | -87.34976 | 9021 ft | 220 kts | 278° |
| 2026-05-05 22:30 | 42.00101 | -87.36957 | 9024 ft | 222 kts | 281° |
| 2026-05-05 22:30 | 42.00458 | -87.38979 | 8975 ft | 222 kts | 281° |
| 2026-05-05 22:31 | 42.00807 | -87.40990 | 8594 ft | 219 kts | 281° |
| 2026-05-05 22:31 | 42.01142 | -87.42967 | 8107 ft | 215 kts | 278° |
| 2026-05-05 22:31 | 42.01019 | -87.44927 | 7637 ft | 210 kts | 256° |
| 2026-05-05 22:31 | 42.00631 | -87.46818 | 7161 ft | 209 kts | 256° |
| 2026-05-05 22:32 | 42.00362 | -87.48694 | 6820 ft | 201 kts | 264° |
| 2026-05-05 22:32 | 42.00282 | -87.50500 | 6570 ft | 193 kts | 269° |
| 2026-05-05 22:32 | 42.00281 | -87.52323 | 6309 ft | 194 kts | 270° |
| 2026-05-05 22:32 | 42.00283 | -87.54113 | 6042 ft | 195 kts | 270° |
| 2026-05-05 22:33 | 42.00283 | -87.55918 | 5767 ft | 195 kts | 270° |
| 2026-05-05 22:33 | 42.00283 | -87.57737 | 5494 ft | 194 kts | 270° |
| 2026-05-05 22:33 | 42.00283 | -87.59555 | 5226 ft | 193 kts | 269° |
| 2026-05-05 22:33 | 42.00283 | -87.61354 | 4969 ft | 192 kts | 269° |
| 2026-05-05 22:34 | 42.00283 | -87.62547 | 4798 ft | 192 kts | 269° |
| 2026-05-05 22:34 | 42.00283 | -87.64347 | 4538 ft | 191 kts | 269° |
| 2026-05-05 22:34 | 42.00284 | -87.66593 | 4209 ft | 174 kts | 269° |
| 2026-05-05 22:34 | 42.00284 | -87.67952 | 4006 ft | 165 kts | 268° |
| 2026-05-05 22:35 | 42.00283 | -87.69518 | 3788 ft | 170 kts | 268° |
| 2026-05-05 22:35 | 42.00284 | -87.70561 | 3637 ft | 168 kts | 268° |
| 2026-05-05 22:35 | 42.00283 | -87.72120 | 3420 ft | 168 kts | 268° |
| 2026-05-05 22:35 | 42.00283 | -87.73689 | 3191 ft | 166 kts | 268° |
| 2026-05-05 22:36 | 42.00284 | -87.75180 | 2981 ft | 151 kts | 267° |
| 2026-05-05 22:36 | 42.00285 | -87.76487 | 2792 ft | 130 kts | 266° |
| 2026-05-05 22:36 | 42.00283 | -87.77601 | 2641 ft | 130 kts | 267° |
| 2026-05-05 22:36 | 42.00284 | -87.78696 | 2488 ft | 133 kts | 266° |
| 2026-05-05 22:37 | 42.00283 | -87.79938 | 2310 ft | 132 kts | 267° |
| 2026-05-05 22:37 | 42.00283 | -87.81170 | 2138 ft | 131 kts | 267° |
| 2026-05-05 22:37 | 42.00283 | -87.82260 | 1978 ft | 127 kts | 268° |
| 2026-05-05 22:37 | 42.00283 | -87.83260 | 1827 ft | 126 kts | 268° |
| 2026-05-05 22:38 | 42.00283 | -87.84429 | 1609 ft | 127 kts | 267° |
| 2026-05-05 22:38 | 42.00283 | -87.85617 | 1385 ft | 131 kts | 269° |
| 2026-05-05 22:38 | 42.00282 | -87.86816 | 1175 ft | 135 kts | 271° |
| 2026-05-05 22:38 | 42.00281 | -87.87927 | 997 ft | 137 kts | 272° |
| 2026-05-05 22:39 | 42.00283 | -87.89167 | 819 ft | 139 kts | 272° |
| 2026-05-05 22:39 | 42.00286 | -87.90453 | 677 ft | 128 kts | 271° |
| 2026-05-05 22:39 | 42.00287 | -87.91436 | 670 ft | 97 kts | 268° |
| 2026-05-05 22:39 | 42.00287 | -87.92142 | 680 ft | 54 kts | 268° |
| 2026-05-05 22:40 | 42.00278 | -87.92268 | 679 ft | 5 kts | 254° |
| 2026-05-05 22:40 | 42.00246 | -87.92383 | 680 ft | 17 kts | 244° |
| 2026-05-05 22:40 | 42.00202 | -87.92483 | 680 ft | 19 kts | 236° |
| 2026-05-05 22:40 | 42.00168 | -87.92554 | 674 ft | 8 kts | 239° |
| 2026-05-05 22:41 | 42.00121 | -87.92621 | 674 ft | 12 kts | 226° |
| 2026-05-05 22:41 | 42.00051 | -87.92653 | 676 ft | 12 kts | 176° |
| 2026-05-05 22:41 | 41.99953 | -87.92653 | 675 ft | 17 kts | 198° |
| 2026-05-05 22:41 | 41.99822 | -87.92694 | 672 ft | 23 kts | 196° |
| 2026-05-05 22:42 | 41.99712 | -87.92749 | 671 ft | 24 kts | 212° |
| 2026-05-05 22:42 | 41.99592 | -87.92883 | 666 ft | 23 kts | 216° |
| 2026-05-05 22:42 | 41.99518 | -87.93008 | 674 ft | 16 kts | 232° |
| 2026-05-05 22:42 | 41.99440 | -87.93130 | 673 ft | 19 kts | 210° |
| 2026-05-05 22:43 | 41.99363 | -87.93144 | 674 ft | 8 kts | 182° |
| 2026-05-05 22:43 | 41.99301 | -87.93147 | 677 ft | 9 kts | 181° |
| 2026-05-05 22:43 | 41.99232 | -87.93147 | 678 ft | 12 kts | 178° |
| 2026-05-05 22:43 | 41.99162 | -87.93143 | 677 ft | 15 kts | 178° |
| 2026-05-05 22:44 | 41.99055 | -87.93137 | 677 ft | 18 kts | 178° |
| 2026-05-05 22:44 | 41.98921 | -87.93137 | 677 ft | 20 kts | 181° |
| 2026-05-05 22:44 | 41.98776 | -87.93138 | 680 ft | 22 kts | 180° |
| 2026-05-05 22:44 | 41.98616 | -87.93143 | 679 ft | 25 kts | 182° |
| 2026-05-05 22:45 | 41.98440 | -87.93137 | 681 ft | 26 kts | 175° |
| 2026-05-05 22:45 | 41.98262 | -87.93133 | 679 ft | 13 kts | 181° |
| 2026-05-05 22:45 | 41.98175 | -87.93103 | 678 ft | 12 kts | 115° |
| 2026-05-05 22:45 | 41.98189 | -87.92999 | 677 ft | 14 kts | 78° |
| 2026-05-05 22:46 | 41.98198 | -87.92850 | 675 ft | 19 kts | 90° |
| 2026-05-05 22:46 | 41.98190 | -87.92631 | 670 ft | 29 kts | 92° |
| 2026-05-05 22:46 | 41.98188 | -87.92418 | 668 ft | 22 kts | 86° |
| 2026-05-05 22:46 | 41.98194 | -87.92203 | 667 ft | 25 kts | 92° |
| 2026-05-05 22:47 | 41.98168 | -87.91963 | 668 ft | 27 kts | 90° |
| 2026-05-05 22:47 | 41.98172 | -87.91703 | 669 ft | 29 kts | 87° |
| 2026-05-05 22:47 | 41.98166 | -87.91429 | 668 ft | 31 kts | 92° |
| 2026-05-05 22:47 | 41.98129 | -87.91253 | 666 ft | 3 kts | 111° |
| 2026-05-05 22:48 | 41.98127 | -87.91251 | 666 ft | 0 kts | 125° |
| 2026-05-05 22:48 | 41.98116 | -87.91229 | 666 ft | 6 kts | 124° |
| 2026-05-05 22:48 | 41.98085 | -87.91169 | 666 ft | 10 kts | 125° |
| 2026-05-05 22:48 | 41.98056 | -87.91080 | 667 ft | 11 kts | 96° |
| 2026-05-05 22:49 | 41.98053 | -87.91045 | 667 ft | 0 kts | 96° |